Time;durP1;ratioP1;P1;durP2;ratioP2;P2;SDS_P1;SDS_P2;PMS_P1;PMS_P2;Temp;Humidity;BMP_temperature;BMP_pressure;BME280_temperature;BME280_humidity;BME280_pressure;Samples;Min_cycle;Max_cycle;Signal;HPM_P1;HPM_P2
2023/03/02 00:01:18;;;;;;;26.40;20.33;;;4.30;99.90;;;;;;5038101;28;20103;-81
2023/03/02 00:03:44;;;;;;;31.65;21.45;;;4.40;99.90;;;;;;5017505;28;20057;-82
2023/03/02 00:06:10;;;;;;;25.98;20.55;;;3.10;99.90;;;;;;5041342;28;20382;-83
2023/03/02 00:08:37;;;;;;;21.45;18.33;;;3.10;99.90;;;;;;5040835;28;20144;-82
2023/03/02 00:11:03;;;;;;;22.98;19.50;;;3.10;99.90;;;;;;5037036;28;20103;-84
2023/03/02 00:13:30;;;;;;;22.90;17.83;;;3.10;99.90;;;;;;5000543;28;20049;-82
2023/03/02 00:15:55;;;;;;;24.27;18.45;;;3.30;99.90;;;;;;5020747;28;20085;-83
2023/03/02 00:18:21;;;;;;;19.55;17.45;;;4.70;99.90;;;;;;5040780;28;20495;-83
2023/03/02 00:20:47;;;;;;;22.15;18.88;;;3.00;99.90;;;;;;5038783;28;20037;-82
2023/03/02 00:23:13;;;;;;;21.27;18.00;;;3.10;99.90;;;;;;5016293;28;20132;-84
2023/03/02 00:25:39;;;;;;;23.55;17.35;;;4.30;99.90;;;;;;5016302;28;20042;-82
2023/03/02 00:28:05;;;;;;;22.45;18.13;;;3.00;99.90;;;;;;5022928;28;20375;-82
2023/03/02 00:30:30;;;;;;;22.73;17.65;;;3.10;99.90;;;;;;5021590;28;20507;-82
2023/03/02 00:32:57;;;;;;;19.13;17.05;;;3.00;99.90;;;;;;5020845;28;20493;-81
2023/03/02 00:35:25;;;;;;;20.55;16.80;;;2.90;99.90;;;;;;5037972;28;20053;-81
2023/03/02 00:37:51;;;;;;;20.40;15.82;;;3.10;99.90;;;;;;4999872;28;20058;-81
2023/03/02 00:40:17;;;;;;;18.02;15.15;;;3.10;99.90;;;;;;4986452;28;20410;-84
2023/03/02 00:42:43;;;;;;;17.52;14.73;;;3.10;99.90;;;;;;5020298;28;20383;-83
2023/03/02 00:45:08;;;;;;;18.48;14.13;;;3.20;99.90;;;;;;5017201;28;20450;-82
2023/03/02 00:47:35;;;;;;;18.38;15.50;;;3.10;99.90;;;;;;5017372;28;20057;-84
2023/03/02 00:50:02;;;;;;;17.35;14.68;;;3.60;99.90;;;;;;5019684;28;20061;-85
2023/03/02 00:52:32;;;;;;;20.38;15.57;;;3.70;99.90;;;;;;4985864;28;20140;-84
2023/03/02 00:54:57;;;;;;;15.73;13.98;;;3.00;99.90;;;;;;5000996;28;20064;-85
2023/03/02 00:57:23;;;;;;;15.95;14.20;;;4.00;99.90;;;;;;5016054;28;20050;-84
2023/03/02 00:59:49;;;;;;;17.30;14.77;;;3.10;99.90;;;;;;5015390;28;20564;-84
2023/03/02 01:02:16;;;;;;;19.15;14.95;;;3.10;99.90;;;;;;5020641;28;20405;-84
2023/03/02 01:04:43;;;;;;;20.38;15.10;;;3.00;99.90;;;;;;4986405;28;20064;-85
2023/03/02 01:07:14;;;;;;;19.58;15.88;;;3.00;99.90;;;;;;4982715;28;20060;-84
2023/03/02 01:09:41;;;;;;;18.88;15.45;;;3.00;99.90;;;;;;5017016;28;20053;-87
2023/03/02 01:12:10;;;;;;;19.23;16.42;;;4.00;99.90;;;;;;4992299;28;20042;-85
2023/03/02 01:14:39;;;;;;;19.30;16.20;;;3.00;99.90;;;;;;5016834;28;20069;-84
2023/03/02 01:17:06;;;;;;;21.45;15.52;;;3.00;99.90;;;;;;5002958;28;20058;-85
2023/03/02 01:19:31;;;;;;;18.80;14.98;;;4.60;99.90;;;;;;4985682;28;20136;-83
2023/03/02 01:21:58;;;;;;;19.85;15.70;;;4.70;99.90;;;;;;4984843;28;20050;-82
2023/03/02 01:24:24;;;;;;;19.42;15.73;;;2.90;99.90;;;;;;4999533;28;20042;-84
2023/03/02 01:26:49;;;;;;;23.05;16.73;;;4.50;99.90;;;;;;4998315;28;20518;-82
2023/03/02 01:29:15;;;;;;;21.45;15.98;;;2.80;99.90;;;;;;4986450;28;20057;-82
2023/03/02 01:31:41;;;;;;;18.83;14.57;;;2.80;99.90;;;;;;4985516;28;20140;-81
2023/03/02 01:34:07;;;;;;;20.00;17.00;;;4.40;99.90;;;;;;4982457;28;20054;-82
2023/03/02 01:36:33;;;;;;;19.70;15.50;;;4.30;99.90;;;;;;5003435;28;20054;-83
2023/03/02 01:38:59;;;;;;;23.20;16.77;;;2.90;99.90;;;;;;5020076;28;20064;-82
2023/03/02 01:41:25;;;;;;;19.17;14.68;;;2.80;99.90;;;;;;5021872;28;20067;-82
2023/03/02 01:43:50;;;;;;;22.30;16.23;;;4.20;99.90;;;;;;5042125;28;20052;-84
2023/03/02 01:46:24;;;;;;;22.00;16.52;;;2.60;99.90;;;;;;5040995;28;20038;-81
2023/03/02 01:48:56;;;;;;;23.30;16.52;;;2.80;99.90;;;;;;5018893;28;20058;-81
2023/03/02 01:51:24;;;;;;;21.75;16.77;;;3.60;99.90;;;;;;5025899;28;20052;-82
2023/03/02 01:53:55;;;;;;;22.73;17.05;;;2.70;99.90;;;;;;5024972;28;20080;-82
2023/03/02 01:56:25;;;;;;;23.75;17.77;;;2.70;99.90;;;;;;5018795;28;20056;-81
2023/03/02 01:58:55;;;;;;;19.83;17.05;;;2.70;99.90;;;;;;5037093;28;20076;-81
2023/03/02 02:01:21;;;;;;;21.90;16.85;;;2.60;99.90;;;;;;5025852;28;20052;-82
2023/03/02 02:03:49;;;;;;;22.23;17.38;;;2.60;99.90;;;;;;5041530;28;20057;-81
2023/03/02 02:06:37;;;;;;;24.10;17.58;;;4.50;99.90;;;;;;5011209;28;20046;-81
2023/03/02 02:09:07;;;;;;;24.33;19.02;;;2.70;99.90;;;;;;5005307;28;20061;-83
2023/03/02 02:11:33;;;;;;;24.10;18.30;;;2.60;99.90;;;;;;5008635;28;20049;-82
2023/03/02 02:14:00;;;;;;;24.35;19.23;;;2.50;99.90;;;;;;5024433;28;20410;-82
2023/03/02 02:16:29;;;;;;;25.23;18.95;;;1.50;99.90;;;;;;5018455;28;20148;-81
2023/03/02 02:18:55;;;;;;;28.02;20.20;;;2.50;99.90;;;;;;5037734;28;20378;-82
2023/03/02 02:21:23;;;;;;;29.52;21.85;;;3.10;99.90;;;;;;5043149;28;20041;-83
2023/03/02 02:24:13;;;;;;;29.77;20.60;;;2.30;99.90;;;;;;5041560;28;20368;-81
2023/03/02 02:26:47;;;;;;;31.58;22.88;;;2.50;99.90;;;;;;5034750;28;20037;-83
2023/03/02 02:29:21;;;;;;;31.20;21.63;;;4.20;99.90;;;;;;5025340;28;20045;-82
2023/03/02 02:31:54;;;;;;;29.77;21.73;;;2.30;99.90;;;;;;5024685;28;20412;-81
2023/03/02 02:34:27;;;;;;;33.00;23.17;;;2.40;99.90;;;;;;5011857;28;20102;-83
2023/03/02 02:36:58;;;;;;;31.95;22.52;;;3.10;99.90;;;;;;5018321;28;20081;-80
2023/03/02 02:39:28;;;;;;;33.40;23.52;;;2.40;99.90;;;;;;5043013;28;20084;-84
2023/03/02 02:41:59;;;;;;;33.25;24.25;;;2.50;99.90;;;;;;5024240;28;20053;-81
2023/03/02 02:44:25;;;;;;;35.90;24.58;;;2.50;99.90;;;;;;5001300;28;20410;-84
2023/03/02 02:46:50;;;;;;;35.95;24.48;;;3.90;99.90;;;;;;5018322;28;20053;-80
2023/03/02 02:49:38;;;;;;;37.03;25.75;;;3.80;99.90;;;;;;5025707;28;20069;-84
2023/03/02 02:52:05;;;;;;;38.83;25.80;;;3.30;99.90;;;;;;5040266;28;20519;-84
2023/03/02 02:54:33;;;;;;;41.95;25.70;;;2.40;99.90;;;;;;5038854;28;20084;-84
2023/03/02 02:57:01;;;;;;;40.60;25.95;;;2.50;99.90;;;;;;5039783;28;20072;-82
2023/03/02 02:59:42;;;;;;;41.65;25.80;;;2.50;99.90;;;;;;5042170;28;20037;-82
2023/03/02 03:02:19;;;;;;;42.72;25.80;;;2.50;99.90;;;;;;5022938;28;20053;-86
2023/03/02 03:04:45;;;;;;;43.25;27.42;;;2.50;99.90;;;;;;5017985;28;20061;-85
2023/03/02 03:07:23;;;;;;;41.63;26.65;;;2.50;99.90;;;;;;5021404;28;20060;-83
2023/03/02 03:10:12;;;;;;;41.53;26.55;;;2.50;99.90;;;;;;5040641;28;20056;-84
2023/03/02 03:12:39;;;;;;;40.55;26.25;;;4.50;99.90;;;;;;4998418;28;20520;-82
2023/03/02 03:15:06;;;;;;;39.10;25.40;;;4.10;99.90;;;;;;5040121;28;20060;-83
2023/03/02 03:17:32;;;;;;;35.47;24.90;;;2.40;99.90;;;;;;5024181;28;20045;-85
2023/03/02 03:20:04;;;;;;;39.95;25.67;;;2.30;99.90;;;;;;5022675;28;20057;-85
2023/03/02 03:22:32;;;;;;;35.70;25.02;;;2.70;99.90;;;;;;5004331;28;20111;-85
2023/03/02 03:24:58;;;;;;;38.58;25.42;;;4.00;99.90;;;;;;5038946;28;20136;-83
2023/03/02 03:27:23;;;;;;;34.80;23.85;;;2.40;99.90;;;;;;5023646;28;20147;-81
2023/03/02 03:29:49;;;;;;;37.55;24.90;;;3.90;99.90;;;;;;5007339;28;20041;-82
2023/03/02 03:32:16;;;;;;;36.53;24.20;;;2.30;99.90;;;;;;5021354;28;20045;-84
2023/03/02 03:34:42;;;;;;;38.42;24.83;;;2.40;99.90;;;;;;5037756;28;20136;-81
2023/03/02 03:37:14;;;;;;;41.50;25.27;;;2.40;99.90;;;;;;5020019;28;20050;-81
2023/03/02 03:39:41;;;;;;;36.55;23.92;;;2.20;99.90;;;;;;5023369;28;20095;-81
2023/03/02 03:42:07;;;;;;;32.10;22.40;;;2.30;99.90;;;;;;5005410;28;20045;-82
2023/03/02 03:44:33;;;;;;;31.95;22.00;;;2.20;99.90;;;;;;5038467;28;20041;-81
2023/03/02 03:46:59;;;;;;;32.38;21.40;;;2.60;99.90;;;;;;5017382;28;20049;-82
2023/03/02 03:49:25;;;;;;;31.58;22.95;;;2.20;99.90;;;;;;5023406;28;20056;-81
2023/03/02 03:51:51;;;;;;;34.67;23.63;;;2.30;99.90;;;;;;5023841;28;20520;-80
2023/03/02 03:54:17;;;;;;;37.90;24.58;;;2.20;99.90;;;;;;5038421;28;20135;-80
2023/03/02 03:56:46;;;;;;;37.75;23.65;;;3.90;99.90;;;;;;5038554;28;20046;-84
2023/03/02 03:59:15;;;;;;;37.35;24.17;;;2.20;99.90;;;;;;5039760;28;20405;-81
2023/03/02 04:01:47;;;;;;;39.53;24.73;;;2.20;99.90;;;;;;5023086;28;20056;-83
2023/03/02 04:04:16;;;;;;;38.20;24.23;;;2.20;99.90;;;;;;5004858;28;20056;-82
2023/03/02 04:06:42;;;;;;;36.78;24.02;;;2.10;99.90;;;;;;5000201;28;20061;-83
2023/03/02 04:09:08;;;;;;;36.53;23.83;;;4.20;99.90;;;;;;5002849;28;20150;-82
2023/03/02 04:11:38;;;;;;;42.03;25.42;;;2.10;99.90;;;;;;5016785;28;20506;-82
2023/03/02 04:14:05;;;;;;;40.58;27.02;;;1.50;99.90;;;;;;5035534;28;20060;-82
2023/03/02 04:16:31;;;;;;;43.42;26.92;;;4.10;99.90;;;;;;5039457;28;20061;-80
2023/03/02 04:18:57;;;;;;;41.60;24.88;;;2.20;99.90;;;;;;5006698;28;20052;-81
2023/03/02 04:21:23;;;;;;;32.78;22.77;;;2.20;99.90;;;;;;5036530;28;20042;-83
2023/03/02 04:23:49;;;;;;;30.15;20.77;;;3.80;99.90;;;;;;5015795;28;20058;-84
2023/03/02 04:26:16;;;;;;;28.25;21.13;;;3.20;99.90;;;;;;5020477;28;20049;-86
2023/03/02 04:28:42;;;;;;;31.27;21.40;;;2.10;99.90;;;;;;5039639;28;20041;-83
2023/03/02 04:31:09;;;;;;;28.90;20.80;;;2.20;99.90;;;;;;5021539;28;20055;-84
2023/03/02 04:33:35;;;;;;;28.98;21.10;;;2.20;99.90;;;;;;5000123;28;20045;-84
2023/03/02 04:36:00;;;;;;;29.30;20.65;;;2.10;99.90;;;;;;5015911;28;20115;-81
2023/03/02 04:38:28;;;;;;;32.03;21.25;;;0.80;99.90;;;;;;5011135;28;20041;-84
2023/03/02 04:40:57;;;;;;;32.25;22.55;;;2.10;99.90;;;;;;5037221;28;20085;-82
2023/03/02 04:43:24;;;;;;;35.22;23.02;;;2.20;99.90;;;;;;5036846;28;20463;-85
2023/03/02 04:45:51;;;;;;;36.72;23.42;;;3.50;99.90;;;;;;5016534;28;20066;-80
2023/03/02 04:48:16;;;;;;;31.65;22.65;;;3.90;99.90;;;;;;5020018;28;20233;-82
2023/03/02 04:50:42;;;;;;;37.67;25.70;;;2.10;99.90;;;;;;5005620;28;20451;-82
2023/03/02 04:53:08;;;;;;;37.30;24.25;;;2.40;99.90;;;;;;5062505;28;20033;-83
2023/03/02 04:55:33;;;;;;;39.90;24.65;;;2.00;99.90;;;;;;5051822;28;20080;-81
2023/03/02 04:57:59;;;;;;;40.55;25.52;;;2.10;99.90;;;;;;5003911;28;20049;-82
2023/03/02 05:00:27;;;;;;;42.20;26.45;;;4.00;99.90;;;;;;5022241;28;20224;-81
2023/03/02 05:02:53;;;;;;;43.30;27.40;;;2.00;99.90;;;;;;5040292;28;20088;-81
2023/03/02 05:05:23;;;;;;;46.40;27.52;;;2.00;99.90;;;;;;5036830;28;20060;-83
2023/03/02 05:07:49;;;;;;;45.40;27.85;;;2.10;99.90;;;;;;4999524;28;20101;-84
2023/03/02 05:10:16;;;;;;;46.88;29.48;;;2.10;99.90;;;;;;5018486;28;20050;-83
2023/03/02 05:12:57;;;;;;;48.17;28.25;;;2.10;99.90;;;;;;5039630;28;20132;-81
2023/03/02 05:15:25;;;;;;;47.85;27.80;;;2.10;99.90;;;;;;5003579;28;20535;-84
2023/03/02 05:17:51;;;;;;;49.97;28.95;;;2.10;99.90;;;;;;5036608;28;20079;-85
2023/03/02 05:20:18;;;;;;;49.55;28.48;;;3.60;99.90;;;;;;5037560;28;20049;-83
2023/03/02 05:22:44;;;;;;;46.53;26.60;;;2.10;99.90;;;;;;5021788;28;20038;-85
2023/03/02 05:25:10;;;;;;;52.15;29.05;;;2.10;99.90;;;;;;5000396;28;20456;-85
2023/03/02 05:27:36;;;;;;;39.58;25.13;;;2.10;99.90;;;;;;5021501;28;20045;-85
2023/03/02 05:30:04;;;;;;;45.92;25.77;;;2.10;99.90;;;;;;5021822;28;20053;-84
2023/03/02 05:32:30;;;;;;;45.30;27.17;;;2.10;99.90;;;;;;5015537;28;20450;-81
2023/03/02 05:34:57;;;;;;;47.17;27.23;;;2.50;99.90;;;;;;5031472;28;20151;-81
2023/03/02 05:37:23;;;;;;;48.92;28.15;;;1.90;99.90;;;;;;5019750;28;20609;-81
2023/03/02 05:39:49;;;;;;;46.50;28.08;;;2.00;99.90;;;;;;5004800;28;20056;-82
2023/03/02 05:42:15;;;;;;;45.58;26.90;;;1.90;99.90;;;;;;5020693;28;20057;-83
2023/03/02 05:44:40;;;;;;;48.53;27.48;;;3.30;99.90;;;;;;5041230;28;20049;-81
2023/03/02 05:47:06;;;;;;;47.70;27.77;;;2.00;99.90;;;;;;5039586;28;20139;-85
2023/03/02 05:49:31;;;;;;;48.03;28.00;;;4.40;99.90;;;;;;5035559;28;20053;-81
2023/03/02 05:51:57;;;;;;;47.75;26.38;;;2.00;99.90;;;;;;5036595;28;20052;-84
2023/03/02 05:54:23;;;;;;;55.38;26.58;;;1.90;99.90;;;;;;5019064;28;20072;-81
2023/03/02 05:56:48;;;;;;;56.38;27.63;;;1.90;99.90;;;;;;4996893;28;20050;-83
2023/03/02 05:59:14;;;;;;;46.50;26.05;;;2.00;99.90;;;;;;5000501;28;20046;-82
2023/03/02 06:01:39;;;;;;;50.40;26.65;;;3.30;99.90;;;;;;5037513;28;20077;-82
2023/03/02 06:04:05;;;;;;;45.50;25.00;;;1.80;99.90;;;;;;5021723;28;20131;-84
2023/03/02 06:06:31;;;;;;;48.70;23.08;;;2.00;99.90;;;;;;5036566;28;20049;-84
2023/03/02 06:08:56;;;;;;;49.20;24.50;;;2.00;99.90;;;;;;5035590;28;20155;-84
2023/03/02 06:11:22;;;;;;;48.40;24.13;;;3.10;99.90;;;;;;5019235;28;20061;-83
2023/03/02 06:13:47;;;;;;;42.88;23.65;;;1.90;99.90;;;;;;5039640;28;20053;-84
2023/03/02 06:16:13;;;;;;;48.95;23.77;;;1.90;99.90;;;;;;5038227;28;20057;-85
2023/03/02 06:18:39;;;;;;;43.97;23.83;;;1.80;99.90;;;;;;4998589;28;20042;-82
2023/03/02 06:21:05;;;;;;;43.08;22.50;;;1.80;99.90;;;;;;4997892;28;20053;-82
2023/03/02 06:23:31;;;;;;;46.90;24.55;;;1.80;99.90;;;;;;5019940;28;20406;-84
2023/03/02 06:25:57;;;;;;;43.28;23.35;;;1.80;99.90;;;;;;5021518;28;20053;-85
2023/03/02 06:28:24;;;;;;;54.42;23.85;;;1.80;99.90;;;;;;5021481;28;20041;-83
2023/03/02 06:30:51;;;;;;;45.20;24.02;;;1.70;99.90;;;;;;5017635;28;20054;-83
2023/03/02 06:33:18;;;;;;;48.70;23.73;;;1.70;99.90;;;;;;5020050;28;20100;-83
2023/03/02 06:35:45;;;;;;;49.65;23.73;;;1.60;99.90;;;;;;5043299;28;20049;-81
2023/03/02 06:38:10;;;;;;;43.85;21.90;;;1.70;99.90;;;;;;5056082;28;20060;-83
2023/03/02 06:40:36;;;;;;;36.90;21.48;;;3.10;99.90;;;;;;5041462;28;20041;-82
2023/03/02 06:43:02;;;;;;;44.35;21.77;;;1.60;99.90;;;;;;5028197;28;20054;-83
2023/03/02 06:45:28;;;;;;;34.03;20.00;;;3.40;99.90;;;;;;5005383;28;20413;-80
2023/03/02 06:47:56;;;;;;;34.88;19.98;;;1.30;99.90;;;;;;5025062;28;20064;-84
2023/03/02 06:50:22;;;;;;;34.80;21.00;;;1.70;99.90;;;;;;5022758;28;20096;-84
2023/03/02 06:52:47;;;;;;;36.85;21.27;;;1.70;99.90;;;;;;5039504;28;20445;-82
2023/03/02 06:55:13;;;;;;;46.13;20.63;;;1.60;99.90;;;;;;5018481;28;20513;-82
2023/03/02 06:57:38;;;;;;;33.75;19.55;;;1.70;99.90;;;;;;5007837;28;20128;-83
2023/03/02 07:00:17;;;;;;;45.95;20.25;;;1.60;99.90;;;;;;5042126;28;20048;-84
2023/03/02 07:02:48;;;;;;;27.85;18.80;;;1.70;99.90;;;;;;5027045;28;20060;-84
2023/03/02 07:05:14;;;;;;;37.40;21.63;;;1.50;99.90;;;;;;5023982;28;20500;-84
2023/03/02 07:07:40;;;;;;;27.58;18.48;;;1.70;99.90;;;;;;5018082;28;20056;-85
2023/03/02 07:10:07;;;;;;;27.83;19.33;;;1.70;99.90;;;;;;5017291;28;20490;-85
2023/03/02 07:12:33;;;;;;;28.98;19.17;;;1.80;99.90;;;;;;5022272;28;20046;-84
2023/03/02 07:14:59;;;;;;;32.97;18.73;;;2.40;99.90;;;;;;5024827;28;20564;-84
2023/03/02 07:17:25;;;;;;;40.65;20.98;;;1.80;99.90;;;;;;5040645;28;20078;-83
2023/03/02 07:19:51;;;;;;;63.65;37.67;;;2.00;99.90;;;;;;5017386;28;20400;-84
2023/03/02 07:22:16;;;;;;;33.35;22.42;;;1.80;99.90;;;;;;5015949;28;20222;-85
2023/03/02 07:24:42;;;;;;;33.17;20.13;;;1.80;99.90;;;;;;5008355;28;20064;-84
2023/03/02 07:27:11;;;;;;;30.92;19.75;;;1.70;99.90;;;;;;5040196;28;20041;-85
2023/03/02 07:29:37;;;;;;;39.25;19.35;;;1.80;99.90;;;;;;5020729;28;20710;-86
2023/03/02 07:32:05;;;;;;;32.20;20.17;;;1.80;99.90;;;;;;5004094;28;20045;-83
2023/03/02 07:34:31;;;;;;;37.42;19.65;;;1.70;99.90;;;;;;5040489;28;20055;-85
2023/03/02 07:36:57;;;;;;;33.88;19.33;;;1.60;99.90;;;;;;5024075;28;20053;-84
2023/03/02 07:39:23;;;;;;;37.25;20.92;;;1.70;99.90;;;;;;5021722;28;20055;-82
2023/03/02 07:41:48;;;;;;;41.25;20.70;;;1.70;99.90;;;;;;5017198;28;20140;-82
2023/03/02 07:44:14;;;;;;;34.80;19.00;;;3.40;99.90;;;;;;5000556;28;20057;-83
2023/03/02 07:46:40;;;;;;;31.10;18.58;;;1.60;99.90;;;;;;5039930;28;20045;-83
2023/03/02 07:49:08;;;;;;;41.83;19.20;;;1.70;99.90;;;;;;5007604;28;20159;-85
2023/03/02 07:51:34;;;;;;;37.05;20.73;;;3.30;99.90;;;;;;5021496;28;20041;-83
2023/03/02 07:54:01;;;;;;;29.50;20.35;;;1.60;99.90;;;;;;5016932;28;20132;-82
2023/03/02 07:56:27;;;;;;;27.52;19.42;;;3.10;99.90;;;;;;5002803;28;20046;-83
2023/03/02 07:58:53;;;;;;;30.95;20.52;;;1.60;99.90;;;;;;5023693;28;20056;-83
2023/03/02 08:01:19;;;;;;;28.60;19.45;;;1.60;99.90;;;;;;5041088;28;20048;-86
2023/03/02 08:03:44;;;;;;;30.17;20.08;;;1.60;99.90;;;;;;5020370;28;20041;-85
2023/03/02 08:06:12;;;;;;;29.35;20.88;;;1.60;99.90;;;;;;5010497;28;20045;-85
2023/03/02 08:08:38;;;;;;;28.98;20.85;;;1.70;99.90;;;;;;5020297;28;20056;-85
2023/03/02 08:11:11;;;;;;;32.40;20.10;;;3.60;99.90;;;;;;5003624;28;20050;-84
2023/03/02 08:13:37;;;;;;;46.00;19.40;;;2.20;99.90;;;;;;5021136;28;20061;-82
2023/03/02 08:16:05;;;;;;;35.30;19.20;;;1.70;99.90;;;;;;5022783;28;20419;-84
2023/03/02 08:18:31;;;;;;;40.95;19.63;;;1.70;99.90;;;;;;5021975;28;20516;-82
2023/03/02 08:20:58;;;;;;;36.08;21.35;;;1.80;99.90;;;;;;5029118;28;20029;-81
2023/03/02 08:23:24;;;;;;;36.22;20.35;;;1.60;99.90;;;;;;5025148;28;20037;-81
2023/03/02 08:25:51;;;;;;;34.50;19.88;;;1.60;99.90;;;;;;5034595;28;20049;-85
2023/03/02 08:28:18;;;;;;;35.90;24.70;;;1.00;99.90;;;;;;5040835;28;20048;-82
2023/03/02 08:30:44;;;;;;;35.05;22.52;;;1.70;99.90;;;;;;5040283;28;20044;-85
2023/03/02 08:33:09;;;;;;;38.13;22.38;;;2.40;99.90;;;;;;5039730;28;20040;-84
2023/03/02 08:35:35;;;;;;;31.70;20.77;;;1.70;99.90;;;;;;5020563;28;20057;-84
2023/03/02 08:38:01;;;;;;;34.55;21.65;;;3.90;99.90;;;;;;5029337;28;20052;-83
2023/03/02 08:40:26;;;;;;;38.00;21.85;;;1.90;99.90;;;;;;5028902;28;20393;-81
2023/03/02 08:42:55;;;;;;;35.13;20.77;;;1.80;99.90;;;;;;5010451;28;20121;-83
2023/03/02 08:45:24;;;;;;;28.77;19.55;;;1.80;99.90;;;;;;5012001;28;20053;-82
2023/03/02 08:47:53;;;;;;;33.35;21.40;;;1.90;99.90;;;;;;5013059;28;20207;-83
2023/03/02 08:50:20;;;;;;;34.92;20.83;;;3.50;99.90;;;;;;5028682;28;20378;-81
2023/03/02 08:52:46;;;;;;;32.95;21.00;;;3.80;99.90;;;;;;5011956;28;20116;-82
2023/03/02 08:55:12;;;;;;;33.30;20.58;;;3.80;99.90;;;;;;5028911;28;20085;-82
2023/03/02 08:57:40;;;;;;;26.25;17.95;;;0.60;99.90;;;;;;5010448;28;20552;-85
2023/03/02 09:00:08;;;;;;;27.60;19.33;;;3.80;99.90;;;;;;5030001;28;20118;-86
2023/03/02 09:02:33;;;;;;;27.73;19.73;;;2.00;99.90;;;;;;5014527;28;20061;-84
2023/03/02 09:04:59;;;;;;;27.50;18.42;;;2.10;99.90;;;;;;5012390;28;20049;-85
2023/03/02 09:07:24;;;;;;;28.63;18.15;;;2.40;99.90;;;;;;5030943;28;20421;-85
2023/03/02 09:09:54;;;;;;;29.10;18.02;;;3.80;99.90;;;;;;5012498;28;20049;-84
2023/03/02 09:12:19;;;;;;;27.88;18.73;;;2.10;99.90;;;;;;5029110;28;20177;-86
2023/03/02 09:14:45;;;;;;;30.85;18.67;;;2.20;99.90;;;;;;5012762;28;20053;-85
2023/03/02 09:17:14;;;;;;;32.10;21.80;;;3.60;99.90;;;;;;4996828;28;20468;-86
2023/03/02 09:19:40;;;;;;;35.72;22.15;;;2.10;99.90;;;;;;5012655;28;20046;-86
2023/03/02 09:22:07;;;;;;;31.58;20.02;;;2.20;99.90;;;;;;5012649;28;20037;-86
2023/03/02 09:24:34;;;;;;;31.98;20.55;;;2.20;99.90;;;;;;5028899;28;20053;-84
2023/03/02 09:27:00;;;;;;;30.67;19.33;;;4.00;99.90;;;;;;5028043;28;20089;-84
2023/03/02 09:29:26;;;;;;;29.75;19.10;;;2.20;99.90;;;;;;5010509;28;20417;-85
2023/03/02 09:31:52;;;;;;;31.55;20.55;;;2.30;99.90;;;;;;4993372;28;20120;-86
2023/03/02 09:34:18;;;;;;;28.75;19.02;;;4.10;99.90;;;;;;5028463;28;20442;-85
2023/03/02 09:36:44;;;;;;;33.13;20.25;;;2.30;99.90;;;;;;4993988;28;20056;-84
2023/03/02 09:39:11;;;;;;;29.70;19.17;;;2.30;99.90;;;;;;5027688;28;20045;-84
2023/03/02 09:41:55;;;;;;;32.70;20.70;;;2.40;99.90;;;;;;5010758;28;20053;-85
2023/03/02 09:44:53;;;;;;;34.15;21.30;;;2.40;99.90;;;;;;5010704;28;20077;-85
2023/03/02 09:47:42;;;;;;;31.90;19.52;;;2.40;99.90;;;;;;5000063;28;20045;-82
2023/03/02 09:50:50;;;;;;;31.45;19.40;;;2.50;99.90;;;;;;5014380;28;20065;-81
2023/03/02 09:53:50;;;;;;;29.48;19.67;;;2.50;99.90;;;;;;4965493;28;20044;-81
2023/03/02 09:56:18;;;;;;;30.55;19.88;;;2.20;99.90;;;;;;4998571;28;20053;-81
2023/03/02 09:58:52;;;;;;;34.08;19.02;;;2.70;99.90;;;;;;4993621;28;20060;-83
2023/03/02 10:01:31;;;;;;;29.25;18.25;;;2.80;99.90;;;;;;5009798;28;20050;-81
2023/03/02 10:04:20;;;;;;;29.25;17.42;;;2.80;99.90;;;;;;5021420;28;20033;-83
2023/03/02 10:06:45;;;;;;;28.30;18.88;;;2.80;99.90;;;;;;5032614;28;20053;-83
2023/03/02 10:09:11;;;;;;;28.98;17.60;;;3.20;99.90;;;;;;5001306;28;20221;-80
2023/03/02 10:11:57;;;;;;;27.92;17.80;;;2.90;99.90;;;;;;5014258;28;20041;-83
2023/03/02 10:14:47;;;;;;;26.77;17.90;;;2.90;99.90;;;;;;5013865;28;20049;-81
2023/03/02 10:17:34;;;;;;;24.45;16.92;;;3.00;99.90;;;;;;5007674;28;20050;-82
2023/03/02 10:20:07;;;;;;;29.15;18.08;;;3.00;99.90;;;;;;5013581;28;20091;-84
2023/03/02 10:22:38;;;;;;;28.95;17.70;;;3.10;99.90;;;;;;5031356;28;20049;-83
2023/03/02 10:25:17;;;;;;;28.98;18.10;;;3.10;99.90;;;;;;4998306;28;20061;-82
2023/03/02 10:27:47;;;;;;;27.60;16.98;;;3.20;99.90;;;;;;5031567;28;20125;-82
2023/03/02 10:30:17;;;;;;;27.63;18.20;;;3.00;99.90;;;;;;4996176;28;20057;-82
2023/03/02 10:32:48;;;;;;;25.08;16.75;;;3.30;99.90;;;;;;4997211;28;20107;-83
2023/03/02 10:35:17;;;;;;;28.42;17.00;;;3.40;99.90;;;;;;5013176;28;20064;-85
2023/03/02 10:37:46;;;;;;;24.15;16.00;;;3.50;99.90;;;;;;5031447;28;20486;-83
2023/03/02 10:40:41;;;;;;;24.33;16.23;;;3.50;99.90;;;;;;4996828;28;20060;-84
2023/03/02 10:43:17;;;;;;;26.45;16.63;;;3.60;99.90;;;;;;4997961;28;20038;-84
2023/03/02 10:45:43;;;;;;;22.42;16.35;;;5.20;99.90;;;;;;4997268;28;20073;-82
2023/03/02 10:48:12;;;;;;;30.17;17.65;;;3.80;99.90;;;;;;5031018;28;20520;-84
2023/03/02 10:50:42;;;;;;;25.73;16.60;;;5.50;99.90;;;;;;5030517;28;20140;-82
2023/03/02 10:53:16;;;;;;;27.83;16.88;;;3.90;99.90;;;;;;5015274;28;20129;-84
2023/03/02 10:55:51;;;;;;;24.20;16.55;;;5.40;99.90;;;;;;5013294;28;20111;-81
2023/03/02 10:58:29;;;;;;;28.35;18.27;;;5.80;99.90;;;;;;5012867;28;20067;-84
2023/03/02 11:01:04;;;;;;;29.17;18.17;;;5.40;99.90;;;;;;5030688;28;20049;-83
2023/03/02 11:03:30;;;;;;;;;;;4.30;99.90;;;;;;5013073;28;20049;-83
2023/03/02 11:05:57;;;;;;;25.83;15.90;;;4.30;99.90;;;;;;5031120;28;20384;-82
2023/03/02 11:08:25;;;;;;;29.70;18.40;;;4.20;99.90;;;;;;5030848;28;20099;-84
2023/03/02 11:11:00;;;;;;;35.08;19.92;;;4.80;99.90;;;;;;5028600;28;20053;-81
2023/03/02 11:13:31;;;;;;;29.58;18.13;;;4.20;99.90;;;;;;5012713;28;20055;-82
2023/03/02 11:16:17;;;;;;;30.77;17.95;;;5.90;99.90;;;;;;5013147;28;20095;-81
2023/03/02 11:18:46;;;;;;;28.42;17.35;;;4.60;99.90;;;;;;4985256;28;20493;-84
2023/03/02 11:21:24;;;;;;;25.52;16.75;;;4.90;99.90;;;;;;4997487;28;20049;-81
2023/03/02 11:24:03;;;;;;;28.55;19.05;;;5.00;99.90;;;;;;5030627;28;20136;-84
2023/03/02 11:26:57;;;;;;;33.28;19.23;;;6.00;99.90;;;;;;5012193;28;20056;-84
2023/03/02 11:29:34;;;;;;;26.30;17.48;;;5.00;99.90;;;;;;5018601;28;20517;-84
2023/03/02 11:32:14;;;;;;;27.48;16.75;;;5.20;99.90;;;;;;5012368;28;20057;-85
2023/03/02 11:34:50;;;;;;;24.05;15.77;;;5.30;99.90;;;;;;5013011;28;20436;-84
2023/03/02 11:37:38;;;;;;;26.20;16.17;;;5.40;99.90;;;;;;5021135;28;20536;-84
2023/03/02 11:40:29;;;;;;;23.52;14.82;;;6.40;99.90;;;;;;5026806;28;20053;-84
2023/03/02 11:42:57;;;;;;;23.77;15.05;;;5.60;99.90;;;;;;4997348;28;20405;-83
2023/03/02 11:45:26;;;;;;;24.17;15.63;;;5.70;99.90;;;;;;5042110;28;20092;-81
2023/03/02 11:48:22;;;;;;;23.13;14.73;;;6.50;99.90;;;;;;5031919;28;20073;-83
2023/03/02 11:50:56;;;;;;;21.65;13.48;;;5.90;99.90;;;;;;5013557;28;20487;-84
2023/03/02 11:53:28;;;;;;;20.38;14.48;;;6.60;99.90;;;;;;5033497;28;20576;-83
2023/03/02 11:55:54;;;;;;;20.98;14.30;;;6.10;99.90;;;;;;5014162;28;20037;-83
2023/03/02 11:58:24;;;;;;;20.58;13.18;;;6.20;99.90;;;;;;5000012;28;20041;-82
2023/03/02 12:00:51;;;;;;;20.60;14.80;;;6.40;99.90;;;;;;5008246;28;20049;-83
2023/03/02 12:03:43;;;;;;;19.95;14.30;;;6.50;99.90;;;;;;5025763;28;20576;-82
2023/03/02 12:06:21;;;;;;;18.08;13.48;;;6.60;99.90;;;;;;5014894;28;20072;-84
2023/03/02 12:08:50;;;;;;;15.98;12.32;;;7.10;99.90;;;;;;5014883;28;20129;-83
2023/03/02 12:11:16;;;;;;;16.52;11.90;;;6.90;99.90;;;;;;4992224;28;20046;-82
2023/03/02 12:13:44;;;;;;;18.17;11.95;;;7.60;99.90;;;;;;5007956;28;20053;-82
2023/03/02 12:16:20;;;;;;;16.85;12.48;;;8.50;99.90;;;;;;4997348;28;20046;-81
2023/03/02 12:18:47;;;;;;;14.82;11.73;;;7.20;99.90;;;;;;5030265;28;20119;-81
2023/03/02 12:21:19;;;;;;;13.95;11.05;;;7.20;99.90;;;;;;5025631;28;20566;-83
2023/03/02 12:23:48;;;;;;;15.10;11.93;;;7.40;99.90;;;;;;5012729;28;20174;-81
2023/03/02 12:26:19;;;;;;;14.32;11.75;;;7.60;99.90;;;;;;5013072;28;20499;-83
2023/03/02 12:29:10;;;;;;;13.68;10.48;;;8.70;99.90;;;;;;4998486;28;20496;-80
2023/03/02 12:31:44;;;;;;;13.90;11.57;;;7.70;99.90;;;;;;5011972;28;20044;-83
2023/03/02 12:34:32;;;;;;;15.18;11.15;;;7.80;99.90;;;;;;5026988;28;20053;-82
2023/03/02 12:37:19;;;;;;;16.10;11.35;;;7.90;99.90;;;;;;5011892;28;20060;-82
2023/03/02 12:40:14;;;;;;;16.58;12.30;;;7.90;99.90;;;;;;5014004;28;20053;-83
2023/03/02 12:43:05;;;;;;;15.25;12.10;;;8.00;99.90;;;;;;5008080;28;20054;-82
2023/03/02 12:45:40;;;;;;;16.30;11.75;;;8.10;99.90;;;;;;5010173;28;20045;-82
2023/03/02 12:48:42;;;;;;;17.00;12.57;;;8.20;99.90;;;;;;5032120;28;20060;-82
2023/03/02 12:51:20;;;;;;;14.73;11.65;;;8.20;99.90;;;;;;5028767;28;20064;-83